sensor_id;sensor_type;location;lat;lon;timestamp;P1;durP1;ratioP1;P2;durP2;ratioP2
5127;SDS011;2582;48.770;9.190;2022-11-20T00:01:06;9.23;;;7.83;;
5127;SDS011;2582;48.770;9.190;2022-11-20T00:03:33;9.47;;;7.23;;
5127;SDS011;2582;48.770;9.190;2022-11-20T00:06:09;7.23;;;6.50;;
5127;SDS011;2582;48.770;9.190;2022-11-20T00:08:36;9.47;;;8.03;;
5127;SDS011;2582;48.770;9.190;2022-11-20T00:11:03;10.07;;;8.43;;
5127;SDS011;2582;48.770;9.190;2022-11-20T00:13:29;11.97;;;9.93;;
5127;SDS011;2582;48.770;9.190;2022-11-20T00:15:58;8.30;;;7.50;;
5127;SDS011;2582;48.770;9.190;2022-11-20T00:18:24;9.50;;;8.13;;
5127;SDS011;2582;48.770;9.190;2022-11-20T00:20:50;8.57;;;7.67;;
5127;SDS011;2582;48.770;9.190;2022-11-20T00:23:16;9.03;;;6.50;;
5127;SDS011;2582;48.770;9.190;2022-11-20T00:25:42;9.40;;;8.27;;
5127;SDS011;2582;48.770;9.190;2022-11-20T00:28:07;6.20;;;5.70;;
5127;SDS011;2582;48.770;9.190;2022-11-20T00:30:33;5.10;;;4.60;;
5127;SDS011;2582;48.770;9.190;2022-11-20T00:32:59;5.73;;;5.13;;
5127;SDS011;2582;48.770;9.190;2022-11-20T00:35:24;4.90;;;4.40;;
5127;SDS011;2582;48.770;9.190;2022-11-20T00:37:50;4.40;;;4.00;;
5127;SDS011;2582;48.770;9.190;2022-11-20T00:40:15;4.20;;;3.80;;
5127;SDS011;2582;48.770;9.190;2022-11-20T00:42:41;6.50;;;4.60;;
5127;SDS011;2582;48.770;9.190;2022-11-20T00:45:06;4.07;;;3.70;;
5127;SDS011;2582;48.770;9.190;2022-11-20T00:47:32;5.90;;;3.90;;
5127;SDS011;2582;48.770;9.190;2022-11-20T00:49:58;4.60;;;4.20;;
5127;SDS011;2582;48.770;9.190;2022-11-20T00:52:23;4.60;;;4.20;;
5127;SDS011;2582;48.770;9.190;2022-11-20T00:54:49;3.90;;;3.50;;
5127;SDS011;2582;48.770;9.190;2022-11-20T00:57:14;3.63;;;3.33;;
5127;SDS011;2582;48.770;9.190;2022-11-20T00:59:40;2.80;;;2.60;;
5127;SDS011;2582;48.770;9.190;2022-11-20T01:02:05;5.17;;;4.57;;
5127;SDS011;2582;48.770;9.190;2022-11-20T01:04:31;6.27;;;4.73;;
5127;SDS011;2582;48.770;9.190;2022-11-20T01:06:57;3.90;;;3.33;;
5127;SDS011;2582;48.770;9.190;2022-11-20T01:09:22;4.13;;;3.30;;
5127;SDS011;2582;48.770;9.190;2022-11-20T01:11:48;3.80;;;2.80;;
5127;SDS011;2582;48.770;9.190;2022-11-20T01:14:15;4.93;;;3.67;;
5127;SDS011;2582;48.770;9.190;2022-11-20T01:16:45;5.23;;;3.27;;
5127;SDS011;2582;48.770;9.190;2022-11-20T01:19:14;2.80;;;2.60;;
5127;SDS011;2582;48.770;9.190;2022-11-20T01:21:42;3.27;;;2.97;;
5127;SDS011;2582;48.770;9.190;2022-11-20T01:24:13;3.40;;;3.10;;
5127;SDS011;2582;48.770;9.190;2022-11-20T01:26:41;3.30;;;2.63;;
5127;SDS011;2582;48.770;9.190;2022-11-20T01:29:12;3.63;;;3.33;;
5127;SDS011;2582;48.770;9.190;2022-11-20T01:31:40;3.40;;;3.00;;
5127;SDS011;2582;48.770;9.190;2022-11-20T01:34:09;2.83;;;2.33;;
5127;SDS011;2582;48.770;9.190;2022-11-20T01:36:37;2.40;;;2.20;;
5127;SDS011;2582;48.770;9.190;2022-11-20T01:39:05;3.50;;;3.10;;
5127;SDS011;2582;48.770;9.190;2022-11-20T01:41:41;3.23;;;2.83;;
5127;SDS011;2582;48.770;9.190;2022-11-20T01:47:14;3.43;;;3.13;;
5127;SDS011;2582;48.770;9.190;2022-11-20T01:49:48;3.80;;;3.50;;
5127;SDS011;2582;48.770;9.190;2022-11-20T01:52:26;5.60;;;2.80;;
5127;SDS011;2582;48.770;9.190;2022-11-20T01:55:00;4.60;;;4.00;;
5127;SDS011;2582;48.770;9.190;2022-11-20T01:57:30;3.40;;;3.10;;
5127;SDS011;2582;48.770;9.190;2022-11-20T02:00:04;4.00;;;3.60;;
5127;SDS011;2582;48.770;9.190;2022-11-20T02:02:33;5.60;;;3.27;;
5127;SDS011;2582;48.770;9.190;2022-11-20T02:05:01;3.87;;;3.30;;
5127;SDS011;2582;48.770;9.190;2022-11-20T02:07:43;3.43;;;3.13;;
5127;SDS011;2582;48.770;9.190;2022-11-20T02:10:09;3.73;;;3.43;;
5127;SDS011;2582;48.770;9.190;2022-11-20T02:12:35;3.80;;;3.20;;
5127;SDS011;2582;48.770;9.190;2022-11-20T02:15:20;3.50;;;3.20;;
5127;SDS011;2582;48.770;9.190;2022-11-20T02:17:45;3.43;;;3.13;;
5127;SDS011;2582;48.770;9.190;2022-11-20T02:20:11;4.80;;;3.50;;
5127;SDS011;2582;48.770;9.190;2022-11-20T02:22:48;3.10;;;2.87;;
5127;SDS011;2582;48.770;9.190;2022-11-20T02:25:20;3.00;;;2.70;;
5127;SDS011;2582;48.770;9.190;2022-11-20T02:27:46;4.13;;;2.90;;
5127;SDS011;2582;48.770;9.190;2022-11-20T02:30:12;3.53;;;2.83;;
5127;SDS011;2582;48.770;9.190;2022-11-20T02:32:38;3.57;;;3.27;;
5127;SDS011;2582;48.770;9.190;2022-11-20T02:35:08;3.90;;;3.50;;
5127;SDS011;2582;48.770;9.190;2022-11-20T02:37:54;4.13;;;3.77;;
5127;SDS011;2582;48.770;9.190;2022-11-20T02:40:22;5.50;;;4.03;;
5127;SDS011;2582;48.770;9.190;2022-11-20T02:42:52;3.67;;;3.27;;
5127;SDS011;2582;48.770;9.190;2022-11-20T02:45:21;3.50;;;2.80;;
5127;SDS011;2582;48.770;9.190;2022-11-20T02:47:48;3.53;;;3.23;;
5127;SDS011;2582;48.770;9.190;2022-11-20T02:50:13;3.67;;;3.37;;
5127;SDS011;2582;48.770;9.190;2022-11-20T02:52:39;3.97;;;3.57;;
5127;SDS011;2582;48.770;9.190;2022-11-20T02:55:05;3.93;;;3.33;;
5127;SDS011;2582;48.770;9.190;2022-11-20T02:57:31;3.63;;;3.07;;
5127;SDS011;2582;48.770;9.190;2022-11-20T02:59:56;3.90;;;3.50;;
5127;SDS011;2582;48.770;9.190;2022-11-20T03:02:22;4.93;;;3.20;;
5127;SDS011;2582;48.770;9.190;2022-11-20T03:04:48;4.03;;;3.27;;
5127;SDS011;2582;48.770;9.190;2022-11-20T03:07:13;3.70;;;3.40;;
5127;SDS011;2582;48.770;9.190;2022-11-20T03:09:39;4.27;;;3.47;;
5127;SDS011;2582;48.770;9.190;2022-11-20T03:12:05;4.00;;;3.60;;
5127;SDS011;2582;48.770;9.190;2022-11-20T03:14:30;4.27;;;3.57;;
5127;SDS011;2582;48.770;9.190;2022-11-20T03:16:56;4.10;;;3.70;;
5127;SDS011;2582;48.770;9.190;2022-11-20T03:19:22;6.37;;;4.47;;
5127;SDS011;2582;48.770;9.190;2022-11-20T03:21:48;4.40;;;3.70;;
5127;SDS011;2582;48.770;9.190;2022-11-20T03:24:14;3.30;;;3.00;;
5127;SDS011;2582;48.770;9.190;2022-11-20T03:26:40;3.50;;;3.20;;
5127;SDS011;2582;48.770;9.190;2022-11-20T03:29:05;4.20;;;3.80;;
5127;SDS011;2582;48.770;9.190;2022-11-20T03:31:32;4.50;;;4.10;;
5127;SDS011;2582;48.770;9.190;2022-11-20T03:34:00;4.00;;;3.60;;
5127;SDS011;2582;48.770;9.190;2022-11-20T03:36:27;4.70;;;4.30;;
5127;SDS011;2582;48.770;9.190;2022-11-20T03:38:56;5.20;;;4.40;;
5127;SDS011;2582;48.770;9.190;2022-11-20T03:41:23;4.57;;;4.03;;
5127;SDS011;2582;48.770;9.190;2022-11-20T03:43:54;4.30;;;3.90;;
5127;SDS011;2582;48.770;9.190;2022-11-20T03:46:25;4.00;;;3.60;;
5127;SDS011;2582;48.770;9.190;2022-11-20T03:48:51;4.60;;;3.77;;
5127;SDS011;2582;48.770;9.190;2022-11-20T03:51:19;7.67;;;4.20;;
5127;SDS011;2582;48.770;9.190;2022-11-20T03:53:46;4.90;;;4.47;;
5127;SDS011;2582;48.770;9.190;2022-11-20T03:56:14;4.37;;;3.87;;
5127;SDS011;2582;48.770;9.190;2022-11-20T03:58:41;6.20;;;4.17;;
5127;SDS011;2582;48.770;9.190;2022-11-20T04:01:07;4.47;;;4.07;;
5127;SDS011;2582;48.770;9.190;2022-11-20T04:03:38;4.10;;;3.80;;
5127;SDS011;2582;48.770;9.190;2022-11-20T04:06:06;5.50;;;4.80;;
5127;SDS011;2582;48.770;9.190;2022-11-20T04:08:38;4.87;;;4.47;;
5127;SDS011;2582;48.770;9.190;2022-11-20T04:11:46;4.80;;;4.30;;
5127;SDS011;2582;48.770;9.190;2022-11-20T04:14:00;4.47;;;4.07;;
5127;SDS011;2582;48.770;9.190;2022-11-20T04:16:32;5.10;;;4.60;;
5127;SDS011;2582;48.770;9.190;2022-11-20T04:19:00;4.80;;;4.30;;
5127;SDS011;2582;48.770;9.190;2022-11-20T04:21:27;4.60;;;3.90;;
5127;SDS011;2582;48.770;9.190;2022-11-20T04:23:53;4.93;;;4.43;;
5127;SDS011;2582;48.770;9.190;2022-11-20T04:26:20;6.50;;;4.97;;
5127;SDS011;2582;48.770;9.190;2022-11-20T04:28:47;5.50;;;4.73;;
5127;SDS011;2582;48.770;9.190;2022-11-20T04:31:13;5.13;;;4.43;;
5127;SDS011;2582;48.770;9.190;2022-11-20T04:33:40;5.67;;;5.03;;
5127;SDS011;2582;48.770;9.190;2022-11-20T04:36:14;4.80;;;4.37;;
5127;SDS011;2582;48.770;9.190;2022-11-20T04:38:41;4.73;;;4.33;;
5127;SDS011;2582;48.770;9.190;2022-11-20T04:41:08;4.90;;;4.50;;
5127;SDS011;2582;48.770;9.190;2022-11-20T04:43:39;4.37;;;3.33;;
5127;SDS011;2582;48.770;9.190;2022-11-20T04:46:05;4.03;;;3.60;;
5127;SDS011;2582;48.770;9.190;2022-11-20T04:48:30;5.73;;;3.73;;
5127;SDS011;2582;48.770;9.190;2022-11-20T04:50:56;4.87;;;4.00;;
5127;SDS011;2582;48.770;9.190;2022-11-20T04:53:22;3.37;;;3.17;;
5127;SDS011;2582;48.770;9.190;2022-11-20T04:55:48;3.53;;;3.20;;
5127;SDS011;2582;48.770;9.190;2022-11-20T04:58:14;4.47;;;3.37;;
5127;SDS011;2582;48.770;9.190;2022-11-20T05:00:40;4.37;;;3.57;;
5127;SDS011;2582;48.770;9.190;2022-11-20T05:03:06;3.90;;;3.50;;
5127;SDS011;2582;48.770;9.190;2022-11-20T05:05:33;4.00;;;3.50;;
5127;SDS011;2582;48.770;9.190;2022-11-20T05:07:59;3.93;;;3.43;;
5127;SDS011;2582;48.770;9.190;2022-11-20T05:10:25;4.00;;;3.63;;
5127;SDS011;2582;48.770;9.190;2022-11-20T05:12:51;3.90;;;3.50;;
5127;SDS011;2582;48.770;9.190;2022-11-20T05:15:17;4.50;;;4.10;;
5127;SDS011;2582;48.770;9.190;2022-11-20T05:17:49;6.63;;;4.50;;
5127;SDS011;2582;48.770;9.190;2022-11-20T05:20:16;4.07;;;3.70;;
5127;SDS011;2582;48.770;9.190;2022-11-20T05:22:42;3.70;;;3.40;;
5127;SDS011;2582;48.770;9.190;2022-11-20T05:25:08;6.17;;;4.30;;
5127;SDS011;2582;48.770;9.190;2022-11-20T05:27:34;3.40;;;3.10;;
5127;SDS011;2582;48.770;9.190;2022-11-20T05:29:59;4.10;;;3.80;;
5127;SDS011;2582;48.770;9.190;2022-11-20T05:32:25;4.17;;;3.77;;
5127;SDS011;2582;48.770;9.190;2022-11-20T05:34:51;3.87;;;3.30;;
5127;SDS011;2582;48.770;9.190;2022-11-20T05:37:17;3.23;;;3.03;;
5127;SDS011;2582;48.770;9.190;2022-11-20T05:39:42;4.60;;;4.20;;
5127;SDS011;2582;48.770;9.190;2022-11-20T05:42:08;4.30;;;3.90;;
5127;SDS011;2582;48.770;9.190;2022-11-20T05:44:52;4.87;;;3.93;;
5127;SDS011;2582;48.770;9.190;2022-11-20T05:47:18;4.73;;;4.10;;
5127;SDS011;2582;48.770;9.190;2022-11-20T05:49:44;4.00;;;3.60;;
5127;SDS011;2582;48.770;9.190;2022-11-20T05:52:09;4.20;;;3.80;;
5127;SDS011;2582;48.770;9.190;2022-11-20T05:54:35;3.60;;;2.97;;
5127;SDS011;2582;48.770;9.190;2022-11-20T05:57:00;3.93;;;2.87;;
5127;SDS011;2582;48.770;9.190;2022-11-20T05:59:26;4.80;;;3.60;;
5127;SDS011;2582;48.770;9.190;2022-11-20T06:01:52;3.60;;;3.30;;
5127;SDS011;2582;48.770;9.190;2022-11-20T06:04:17;3.27;;;2.97;;
5127;SDS011;2582;48.770;9.190;2022-11-20T06:06:43;3.97;;;3.57;;
5127;SDS011;2582;48.770;9.190;2022-11-20T06:09:08;4.10;;;3.50;;
5127;SDS011;2582;48.770;9.190;2022-11-20T06:11:34;3.30;;;3.00;;
5127;SDS011;2582;48.770;9.190;2022-11-20T06:13:59;5.33;;;3.53;;
5127;SDS011;2582;48.770;9.190;2022-11-20T06:16:25;3.30;;;3.00;;
5127;SDS011;2582;48.770;9.190;2022-11-20T06:18:51;3.43;;;3.13;;
5127;SDS011;2582;48.770;9.190;2022-11-20T06:21:17;3.73;;;3.37;;
5127;SDS011;2582;48.770;9.190;2022-11-20T06:23:44;3.70;;;3.20;;
5127;SDS011;2582;48.770;9.190;2022-11-20T06:26:12;3.43;;;2.70;;
5127;SDS011;2582;48.770;9.190;2022-11-20T06:28:39;3.00;;;2.80;;
5127;SDS011;2582;48.770;9.190;2022-11-20T06:31:06;3.30;;;3.00;;
5127;SDS011;2582;48.770;9.190;2022-11-20T06:33:32;2.97;;;2.67;;
5127;SDS011;2582;48.770;9.190;2022-11-20T06:35:59;3.90;;;3.50;;
5127;SDS011;2582;48.770;9.190;2022-11-20T06:38:25;3.07;;;2.87;;
5127;SDS011;2582;48.770;9.190;2022-11-20T06:40:52;3.30;;;2.90;;
5127;SDS011;2582;48.770;9.190;2022-11-20T06:43:18;2.50;;;2.30;;
5127;SDS011;2582;48.770;9.190;2022-11-20T06:45:43;5.40;;;2.80;;
5127;SDS011;2582;48.770;9.190;2022-11-20T06:48:09;3.20;;;2.67;;
5127;SDS011;2582;48.770;9.190;2022-11-20T06:50:37;3.67;;;3.13;;
5127;SDS011;2582;48.770;9.190;2022-11-20T06:53:04;3.50;;;3.30;;
5127;SDS011;2582;48.770;9.190;2022-11-20T06:55:30;3.20;;;2.87;;
5127;SDS011;2582;48.770;9.190;2022-11-20T06:57:57;3.37;;;3.07;;
5127;SDS011;2582;48.770;9.190;2022-11-20T07:00:22;3.43;;;2.77;;
5127;SDS011;2582;48.770;9.190;2022-11-20T07:02:48;2.90;;;2.70;;
5127;SDS011;2582;48.770;9.190;2022-11-20T07:05:14;4.70;;;2.93;;
5127;SDS011;2582;48.770;9.190;2022-11-20T07:07:40;3.53;;;3.23;;
5127;SDS011;2582;48.770;9.190;2022-11-20T07:10:06;4.13;;;2.93;;
5127;SDS011;2582;48.770;9.190;2022-11-20T07:12:32;2.80;;;2.60;;
5127;SDS011;2582;48.770;9.190;2022-11-20T07:14:57;4.20;;;3.50;;
5127;SDS011;2582;48.770;9.190;2022-11-20T07:17:23;3.40;;;3.13;;
5127;SDS011;2582;48.770;9.190;2022-11-20T07:19:49;2.50;;;2.30;;
5127;SDS011;2582;48.770;9.190;2022-11-20T07:22:14;6.63;;;5.13;;
5127;SDS011;2582;48.770;9.190;2022-11-20T07:24:40;3.53;;;2.97;;
5127;SDS011;2582;48.770;9.190;2022-11-20T07:27:05;2.90;;;2.70;;
5127;SDS011;2582;48.770;9.190;2022-11-20T07:29:31;22.40;;;14.23;;
5127;SDS011;2582;48.770;9.190;2022-11-20T07:31:56;6.93;;;4.73;;
5127;SDS011;2582;48.770;9.190;2022-11-20T07:34:22;5.70;;;3.67;;
5127;SDS011;2582;48.770;9.190;2022-11-20T07:36:48;9.83;;;8.77;;
5127;SDS011;2582;48.770;9.190;2022-11-20T07:39:14;9.30;;;8.37;;
5127;SDS011;2582;48.770;9.190;2022-11-20T07:41:39;4.20;;;3.70;;
5127;SDS011;2582;48.770;9.190;2022-11-20T07:44:05;11.87;;;8.23;;
5127;SDS011;2582;48.770;9.190;2022-11-20T07:46:30;9.20;;;4.90;;
5127;SDS011;2582;48.770;9.190;2022-11-20T07:48:56;5.97;;;4.80;;
5127;SDS011;2582;48.770;9.190;2022-11-20T07:51:22;7.87;;;6.37;;
5127;SDS011;2582;48.770;9.190;2022-11-20T07:53:50;6.57;;;4.23;;
5127;SDS011;2582;48.770;9.190;2022-11-20T07:56:16;17.67;;;12.47;;
5127;SDS011;2582;48.770;9.190;2022-11-20T07:58:41;7.00;;;5.47;;
5127;SDS011;2582;48.770;9.190;2022-11-20T08:01:07;8.37;;;7.23;;
5127;SDS011;2582;48.770;9.190;2022-11-20T08:03:33;6.23;;;4.57;;
5127;SDS011;2582;48.770;9.190;2022-11-20T08:05:59;8.43;;;6.13;;
5127;SDS011;2582;48.770;9.190;2022-11-20T08:08:26;4.07;;;3.57;;
5127;SDS011;2582;48.770;9.190;2022-11-20T08:10:52;3.97;;;3.57;;
5127;SDS011;2582;48.770;9.190;2022-11-20T08:13:17;8.37;;;6.70;;
5127;SDS011;2582;48.770;9.190;2022-11-20T08:16:01;8.30;;;6.90;;
5127;SDS011;2582;48.770;9.190;2022-11-20T08:18:27;8.37;;;4.83;;
5127;SDS011;2582;48.770;9.190;2022-11-20T08:20:52;9.30;;;7.50;;
5127;SDS011;2582;48.770;9.190;2022-11-20T08:23:18;6.20;;;5.23;;
5127;SDS011;2582;48.770;9.190;2022-11-20T08:25:48;14.93;;;12.70;;
5127;SDS011;2582;48.770;9.190;2022-11-20T08:28:14;9.70;;;5.77;;
5127;SDS011;2582;48.770;9.190;2022-11-20T08:30:40;24.87;;;18.07;;
5127;SDS011;2582;48.770;9.190;2022-11-20T08:33:06;8.20;;;7.40;;
5127;SDS011;2582;48.770;9.190;2022-11-20T08:35:34;4.23;;;2.93;;
5127;SDS011;2582;48.770;9.190;2022-11-20T08:38:01;2.43;;;2.23;;
5127;SDS011;2582;48.770;9.190;2022-11-20T08:40:27;3.10;;;2.90;;
5127;SDS011;2582;48.770;9.190;2022-11-20T08:42:53;3.40;;;2.70;;
5127;SDS011;2582;48.770;9.190;2022-11-20T08:45:18;3.40;;;3.10;;
5127;SDS011;2582;48.770;9.190;2022-11-20T08:47:44;3.20;;;2.90;;
5127;SDS011;2582;48.770;9.190;2022-11-20T08:50:11;2.40;;;2.10;;
5127;SDS011;2582;48.770;9.190;2022-11-20T08:52:38;2.27;;;2.07;;
5127;SDS011;2582;48.770;9.190;2022-11-20T08:55:04;2.40;;;2.20;;
5127;SDS011;2582;48.770;9.190;2022-11-20T08:57:34;1.87;;;1.77;;
5127;SDS011;2582;48.770;9.190;2022-11-20T09:00:01;2.50;;;2.30;;
5127;SDS011;2582;48.770;9.190;2022-11-20T09:02:28;2.50;;;1.60;;
5127;SDS011;2582;48.770;9.190;2022-11-20T09:04:54;4.27;;;3.93;;
5127;SDS011;2582;48.770;9.190;2022-11-20T09:07:19;2.00;;;1.80;;
5127;SDS011;2582;48.770;9.190;2022-11-20T09:09:45;3.20;;;2.37;;
5127;SDS011;2582;48.770;9.190;2022-11-20T09:12:11;1.70;;;1.60;;
5127;SDS011;2582;48.770;9.190;2022-11-20T09:14:36;3.30;;;2.10;;
5127;SDS011;2582;48.770;9.190;2022-11-20T09:17:02;2.83;;;1.77;;
5127;SDS011;2582;48.770;9.190;2022-11-20T09:19:28;3.90;;;3.50;;
5127;SDS011;2582;48.770;9.190;2022-11-20T09:21:53;3.47;;;1.80;;
5127;SDS011;2582;48.770;9.190;2022-11-20T09:24:19;4.53;;;3.00;;
5127;SDS011;2582;48.770;9.190;2022-11-20T09:26:45;2.90;;;2.60;;
5127;SDS011;2582;48.770;9.190;2022-11-20T09:29:11;2.27;;;2.07;;
5127;SDS011;2582;48.770;9.190;2022-11-20T09:31:37;2.60;;;1.90;;
5127;SDS011;2582;48.770;9.190;2022-11-20T09:34:03;1.70;;;1.60;;
5127;SDS011;2582;48.770;9.190;2022-11-20T09:36:28;1.67;;;1.43;;
5127;SDS011;2582;48.770;9.190;2022-11-20T09:38:54;3.83;;;1.77;;
5127;SDS011;2582;48.770;9.190;2022-11-20T09:46:55;3.93;;;3.63;;
5127;SDS011;2582;48.770;9.190;2022-11-20T09:55:10;2.10;;;1.80;;
5127;SDS011;2582;48.770;9.190;2022-11-20T09:57:39;2.70;;;1.50;;
5127;SDS011;2582;48.770;9.190;2022-11-20T10:00:09;4.10;;;2.53;;
5127;SDS011;2582;48.770;9.190;2022-11-20T10:02:46;3.37;;;3.00;;
5127;SDS011;2582;48.770;9.190;2022-11-20T10:05:31;3.70;;;3.40;;
5127;SDS011;2582;48.770;9.190;2022-11-20T10:11:00;3.07;;;2.20;;
5127;SDS011;2582;48.770;9.190;2022-11-20T10:21:55;3.10;;;2.80;;
5127;SDS011;2582;48.770;9.190;2022-11-20T10:24:48;1.67;;;1.57;;
5127;SDS011;2582;48.770;9.190;2022-11-20T10:30:22;2.20;;;1.70;;
5127;SDS011;2582;48.770;9.190;2022-11-20T10:33:00;4.23;;;3.03;;
5127;SDS011;2582;48.770;9.190;2022-11-20T10:38:00;5.73;;;3.70;;
5127;SDS011;2582;48.770;9.190;2022-11-20T10:40:34;2.03;;;1.83;;
5127;SDS011;2582;48.770;9.190;2022-11-20T10:43:08;1.80;;;1.70;;
5127;SDS011;2582;48.770;9.190;2022-11-20T10:45:46;3.40;;;3.10;;
5127;SDS011;2582;48.770;9.190;2022-11-20T10:48:35;2.10;;;2.00;;
5127;SDS011;2582;48.770;9.190;2022-11-20T10:51:07;2.20;;;1.70;;
5127;SDS011;2582;48.770;9.190;2022-11-20T11:01:56;1.87;;;1.77;;
5127;SDS011;2582;48.770;9.190;2022-11-20T11:04:38;1.57;;;1.13;;
5127;SDS011;2582;48.770;9.190;2022-11-20T11:10:30;2.90;;;2.70;;
5127;SDS011;2582;48.770;9.190;2022-11-20T11:13:07;1.63;;;1.40;;
5127;SDS011;2582;48.770;9.190;2022-11-20T11:15:43;2.17;;;1.97;;
5127;SDS011;2582;48.770;9.190;2022-11-20T11:18:10;2.40;;;2.20;;
5127;SDS011;2582;48.770;9.190;2022-11-20T11:20:36;3.60;;;2.77;;
5127;SDS011;2582;48.770;9.190;2022-11-20T11:23:02;3.73;;;2.07;;
5127;SDS011;2582;48.770;9.190;2022-11-20T11:25:33;3.20;;;2.47;;
5127;SDS011;2582;48.770;9.190;2022-11-20T11:28:04;1.67;;;1.57;;
5127;SDS011;2582;48.770;9.190;2022-11-20T11:30:42;2.37;;;1.90;;
5127;SDS011;2582;48.770;9.190;2022-11-20T11:33:10;2.10;;;1.90;;
5127;SDS011;2582;48.770;9.190;2022-11-20T11:35:49;2.33;;;1.97;;
5127;SDS011;2582;48.770;9.190;2022-11-20T11:38:22;2.63;;;1.50;;
5127;SDS011;2582;48.770;9.190;2022-11-20T11:41:09;1.70;;;1.40;;
5127;SDS011;2582;48.770;9.190;2022-11-20T11:43:48;2.20;;;1.77;;
5127;SDS011;2582;48.770;9.190;2022-11-20T11:46:38;2.93;;;1.80;;
5127;SDS011;2582;48.770;9.190;2022-11-20T11:54:05;5.73;;;1.80;;
5127;SDS011;2582;48.770;9.190;2022-11-20T11:56:40;3.67;;;1.67;;
5127;SDS011;2582;48.770;9.190;2022-11-20T11:59:09;2.23;;;1.47;;
5127;SDS011;2582;48.770;9.190;2022-11-20T12:01:51;4.90;;;1.67;;
5127;SDS011;2582;48.770;9.190;2022-11-20T12:07:19;2.60;;;1.50;;
5127;SDS011;2582;48.770;9.190;2022-11-20T12:09:55;1.47;;;1.30;;
5127;SDS011;2582;48.770;9.190;2022-11-20T12:12:24;4.70;;;2.77;;
5127;SDS011;2582;48.770;9.190;2022-11-20T12:14:56;3.93;;;1.73;;
5127;SDS011;2582;48.770;9.190;2022-11-20T12:17:23;2.53;;;1.57;;
5127;SDS011;2582;48.770;9.190;2022-11-20T12:19:49;1.43;;;1.17;;
5127;SDS011;2582;48.770;9.190;2022-11-20T12:22:30;2.60;;;1.53;;
5127;SDS011;2582;48.770;9.190;2022-11-20T12:25:24;3.33;;;1.67;;
5127;SDS011;2582;48.770;9.190;2022-11-20T12:30:41;3.30;;;1.20;;
5127;SDS011;2582;48.770;9.190;2022-11-20T12:33:27;2.33;;;1.57;;
5127;SDS011;2582;48.770;9.190;2022-11-20T12:52:57;3.40;;;1.37;;
5127;SDS011;2582;48.770;9.190;2022-11-20T13:01:06;1.47;;;1.00;;
5127;SDS011;2582;48.770;9.190;2022-11-20T13:04:25;2.90;;;1.00;;
5127;SDS011;2582;48.770;9.190;2022-11-20T13:06:55;1.73;;;1.20;;
5127;SDS011;2582;48.770;9.190;2022-11-20T13:09:22;1.70;;;0.90;;
5127;SDS011;2582;48.770;9.190;2022-11-20T13:17:13;1.30;;;1.00;;
5127;SDS011;2582;48.770;9.190;2022-11-20T13:19:49;1.43;;;1.30;;
5127;SDS011;2582;48.770;9.190;2022-11-20T13:22:28;1.40;;;1.20;;
5127;SDS011;2582;48.770;9.190;2022-11-20T13:25:30;1.20;;;1.10;;
5127;SDS011;2582;48.770;9.190;2022-11-20T13:27:58;1.67;;;1.10;;
5127;SDS011;2582;48.770;9.190;2022-11-20T13:30:26;3.67;;;1.70;;
5127;SDS011;2582;48.770;9.190;2022-11-20T13:32:57;1.60;;;0.93;;
5127;SDS011;2582;48.770;9.190;2022-11-20T13:35:32;2.80;;;1.03;;
5127;SDS011;2582;48.770;9.190;2022-11-20T13:38:09;1.53;;;1.20;;
5127;SDS011;2582;48.770;9.190;2022-11-20T13:40:38;2.43;;;1.10;;
5127;SDS011;2582;48.770;9.190;2022-11-20T13:43:40;1.77;;;1.10;;
5127;SDS011;2582;48.770;9.190;2022-11-20T13:46:07;2.30;;;1.10;;
5127;SDS011;2582;48.770;9.190;2022-11-20T13:48:44;2.40;;;1.20;;
5127;SDS011;2582;48.770;9.190;2022-11-20T13:56:34;2.43;;;1.43;;
5127;SDS011;2582;48.770;9.190;2022-11-20T14:01:59;2.20;;;1.67;;
5127;SDS011;2582;48.770;9.190;2022-11-20T14:04:26;1.57;;;1.10;;
5127;SDS011;2582;48.770;9.190;2022-11-20T14:06:57;2.40;;;1.13;;
5127;SDS011;2582;48.770;9.190;2022-11-20T14:11:53;1.47;;;0.97;;
5127;SDS011;2582;48.770;9.190;2022-11-20T14:14:20;1.93;;;1.60;;
5127;SDS011;2582;48.770;9.190;2022-11-20T14:16:48;1.80;;;1.00;;
5127;SDS011;2582;48.770;9.190;2022-11-20T14:21:51;2.60;;;1.47;;
5127;SDS011;2582;48.770;9.190;2022-11-20T14:24:19;2.23;;;1.67;;
5127;SDS011;2582;48.770;9.190;2022-11-20T14:26:46;2.30;;;2.10;;
5127;SDS011;2582;48.770;9.190;2022-11-20T14:29:16;3.97;;;1.60;;
5127;SDS011;2582;48.770;9.190;2022-11-20T14:31:47;3.83;;;1.87;;
5127;SDS011;2582;48.770;9.190;2022-11-20T14:34:19;1.97;;;1.43;;
5127;SDS011;2582;48.770;9.190;2022-11-20T14:36:47;2.50;;;1.87;;
5127;SDS011;2582;48.770;9.190;2022-11-20T14:39:22;2.60;;;1.83;;
5127;SDS011;2582;48.770;9.190;2022-11-20T14:41:54;2.57;;;2.17;;
5127;SDS011;2582;48.770;9.190;2022-11-20T14:44:20;3.33;;;2.60;;
5127;SDS011;2582;48.770;9.190;2022-11-20T14:47:06;5.63;;;2.13;;
5127;SDS011;2582;48.770;9.190;2022-11-20T14:49:35;2.03;;;1.63;;
5127;SDS011;2582;48.770;9.190;2022-11-20T14:52:09;2.20;;;1.43;;
5127;SDS011;2582;48.770;9.190;2022-11-20T14:54:49;3.20;;;1.67;;
5127;SDS011;2582;48.770;9.190;2022-11-20T15:02:33;3.53;;;1.87;;
5127;SDS011;2582;48.770;9.190;2022-11-20T15:05:03;1.50;;;1.30;;
5127;SDS011;2582;48.770;9.190;2022-11-20T15:07:30;1.90;;;1.63;;
5127;SDS011;2582;48.770;9.190;2022-11-20T15:10:10;3.93;;;1.67;;
5127;SDS011;2582;48.770;9.190;2022-11-20T15:12:59;3.10;;;2.00;;
5127;SDS011;2582;48.770;9.190;2022-11-20T15:15:46;2.97;;;2.17;;
5127;SDS011;2582;48.770;9.190;2022-11-20T15:18:13;2.83;;;2.17;;
5127;SDS011;2582;48.770;9.190;2022-11-20T15:20:41;3.30;;;2.50;;
5127;SDS011;2582;48.770;9.190;2022-11-20T15:23:14;2.40;;;1.57;;
5127;SDS011;2582;48.770;9.190;2022-11-20T15:25:43;2.10;;;1.73;;
5127;SDS011;2582;48.770;9.190;2022-11-20T15:28:19;1.80;;;1.70;;
5127;SDS011;2582;48.770;9.190;2022-11-20T15:30:48;2.67;;;1.83;;
5127;SDS011;2582;48.770;9.190;2022-11-20T15:33:15;3.90;;;2.23;;
5127;SDS011;2582;48.770;9.190;2022-11-20T15:35:41;2.83;;;2.13;;
5127;SDS011;2582;48.770;9.190;2022-11-20T15:38:07;2.60;;;1.70;;
5127;SDS011;2582;48.770;9.190;2022-11-20T15:40:33;2.73;;;1.63;;
5127;SDS011;2582;48.770;9.190;2022-11-20T15:42:59;3.33;;;1.80;;
5127;SDS011;2582;48.770;9.190;2022-11-20T15:45:35;3.60;;;1.70;;
5127;SDS011;2582;48.770;9.190;2022-11-20T15:48:50;2.97;;;1.70;;
5127;SDS011;2582;48.770;9.190;2022-11-20T15:53:39;2.43;;;2.20;;
5127;SDS011;2582;48.770;9.190;2022-11-20T15:56:08;2.97;;;1.93;;
5127;SDS011;2582;48.770;9.190;2022-11-20T15:58:36;4.03;;;2.20;;
5127;SDS011;2582;48.770;9.190;2022-11-20T16:01:02;3.50;;;2.30;;
5127;SDS011;2582;48.770;9.190;2022-11-20T16:03:27;5.57;;;3.90;;
5127;SDS011;2582;48.770;9.190;2022-11-20T16:05:53;3.77;;;2.90;;
5127;SDS011;2582;48.770;9.190;2022-11-20T16:08:19;4.23;;;3.43;;
5127;SDS011;2582;48.770;9.190;2022-11-20T16:10:44;4.47;;;3.40;;
5127;SDS011;2582;48.770;9.190;2022-11-20T16:13:13;3.50;;;2.77;;
5127;SDS011;2582;48.770;9.190;2022-11-20T16:15:59;3.17;;;2.40;;
5127;SDS011;2582;48.770;9.190;2022-11-20T16:18:30;5.17;;;4.27;;
5127;SDS011;2582;48.770;9.190;2022-11-20T16:20:56;5.00;;;4.40;;
5127;SDS011;2582;48.770;9.190;2022-11-20T16:23:22;4.20;;;3.70;;
5127;SDS011;2582;48.770;9.190;2022-11-20T16:25:48;6.90;;;5.00;;
5127;SDS011;2582;48.770;9.190;2022-11-20T16:28:15;3.43;;;3.13;;
5127;SDS011;2582;48.770;9.190;2022-11-20T16:31:23;2.77;;;2.57;;
5127;SDS011;2582;48.770;9.190;2022-11-20T16:33:34;4.40;;;3.50;;
5127;SDS011;2582;48.770;9.190;2022-11-20T16:36:06;3.50;;;3.20;;
5127;SDS011;2582;48.770;9.190;2022-11-20T16:38:35;2.73;;;2.43;;
5127;SDS011;2582;48.770;9.190;2022-11-20T16:41:01;2.80;;;2.57;;
5127;SDS011;2582;48.770;9.190;2022-11-20T16:43:27;2.97;;;2.73;;
5127;SDS011;2582;48.770;9.190;2022-11-20T16:45:52;3.50;;;2.53;;
5127;SDS011;2582;48.770;9.190;2022-11-20T16:48:18;3.03;;;2.70;;
5127;SDS011;2582;48.770;9.190;2022-11-20T16:50:44;3.27;;;2.97;;
5127;SDS011;2582;48.770;9.190;2022-11-20T16:53:12;3.33;;;3.03;;
5127;SDS011;2582;48.770;9.190;2022-11-20T16:55:37;3.47;;;2.70;;
5127;SDS011;2582;48.770;9.190;2022-11-20T16:58:03;2.73;;;2.53;;
5127;SDS011;2582;48.770;9.190;2022-11-20T17:00:28;3.17;;;2.97;;
5127;SDS011;2582;48.770;9.190;2022-11-20T17:02:54;5.40;;;2.77;;
5127;SDS011;2582;48.770;9.190;2022-11-20T17:05:19;3.70;;;2.83;;
5127;SDS011;2582;48.770;9.190;2022-11-20T17:07:45;3.60;;;3.03;;
5127;SDS011;2582;48.770;9.190;2022-11-20T17:10:10;2.70;;;2.50;;